sensor_id;sensor_type;location;lat;lon;timestamp;P1;durP1;ratioP1;P2;durP2;ratioP2
5931;SDS011;2991;49.368;8.528;2022-07-03T01:39:29;1.37;;;1.37;;
5931;SDS011;2991;49.368;8.528;2022-07-03T01:41:56;1.20;;;1.20;;
5931;SDS011;2991;49.368;8.528;2022-07-03T01:44:25;2.77;;;1.40;;
5931;SDS011;2991;49.368;8.528;2022-07-03T01:46:53;1.10;;;1.10;;
5931;SDS011;2991;49.368;8.528;2022-07-03T01:49:23;1.30;;;1.30;;
5931;SDS011;2991;49.368;8.528;2022-07-03T01:51:51;1.20;;;1.20;;
5931;SDS011;2991;49.368;8.528;2022-07-03T01:54:18;1.20;;;1.20;;
5931;SDS011;2991;49.368;8.528;2022-07-03T01:56:52;1.23;;;1.23;;
5931;SDS011;2991;49.368;8.528;2022-07-03T01:59:19;1.10;;;1.10;;
5931;SDS011;2991;49.368;8.528;2022-07-03T02:01:48;1.23;;;1.23;;
5931;SDS011;2991;49.368;8.528;2022-07-03T02:04:24;1.30;;;1.30;;
5931;SDS011;2991;49.368;8.528;2022-07-03T02:07:12;1.00;;;1.00;;
5931;SDS011;2991;49.368;8.528;2022-07-03T02:10:04;1.60;;;1.50;;
5931;SDS011;2991;49.368;8.528;2022-07-03T02:12:51;1.40;;;1.30;;
5931;SDS011;2991;49.368;8.528;2022-07-03T02:15:29;1.30;;;1.30;;
5931;SDS011;2991;49.368;8.528;2022-07-03T02:17:56;1.10;;;1.10;;
5931;SDS011;2991;49.368;8.528;2022-07-03T02:20:23;1.30;;;1.30;;
5931;SDS011;2991;49.368;8.528;2022-07-03T02:22:59;1.23;;;1.20;;
5931;SDS011;2991;49.368;8.528;2022-07-03T02:25:36;1.70;;;1.30;;
5931;SDS011;2991;49.368;8.528;2022-07-03T02:30:36;1.40;;;1.30;;
5931;SDS011;2991;49.368;8.528;2022-07-03T02:33:06;1.57;;;1.50;;
5931;SDS011;2991;49.368;8.528;2022-07-03T02:35:35;1.27;;;1.20;;
5931;SDS011;2991;49.368;8.528;2022-07-03T02:38:08;1.23;;;1.23;;
5931;SDS011;2991;49.368;8.528;2022-07-03T02:40:42;1.40;;;1.30;;
5931;SDS011;2991;49.368;8.528;2022-07-03T02:43:41;2.77;;;1.57;;
5931;SDS011;2991;49.368;8.528;2022-07-03T02:46:07;1.30;;;1.30;;
5931;SDS011;2991;49.368;8.528;2022-07-03T02:49:11;1.33;;;1.33;;
5931;SDS011;2991;49.368;8.528;2022-07-03T02:54:32;1.37;;;1.37;;
5931;SDS011;2991;49.368;8.528;2022-07-03T02:57:07;1.33;;;1.33;;
5931;SDS011;2991;49.368;8.528;2022-07-03T03:04:57;1.20;;;1.20;;
5931;SDS011;2991;49.368;8.528;2022-07-03T03:07:34;1.33;;;1.30;;
5931;SDS011;2991;49.368;8.528;2022-07-03T03:10:08;1.30;;;1.30;;
5931;SDS011;2991;49.368;8.528;2022-07-03T03:12:37;1.07;;;1.07;;
5931;SDS011;2991;49.368;8.528;2022-07-03T03:15:06;1.33;;;1.33;;
5931;SDS011;2991;49.368;8.528;2022-07-03T03:17:43;1.83;;;1.40;;
5931;SDS011;2991;49.368;8.528;2022-07-03T03:20:15;1.13;;;1.13;;
5931;SDS011;2991;49.368;8.528;2022-07-03T03:22:55;1.60;;;1.43;;
5931;SDS011;2991;49.368;8.528;2022-07-03T03:25:27;1.20;;;1.20;;
5931;SDS011;2991;49.368;8.528;2022-07-03T03:27:53;1.20;;;1.20;;
5931;SDS011;2991;49.368;8.528;2022-07-03T03:30:18;1.33;;;1.33;;
5931;SDS011;2991;49.368;8.528;2022-07-03T03:32:45;1.50;;;1.40;;
5931;SDS011;2991;49.368;8.528;2022-07-03T03:35:10;1.13;;;1.13;;
5931;SDS011;2991;49.368;8.528;2022-07-03T03:37:36;1.30;;;1.30;;
5931;SDS011;2991;49.368;8.528;2022-07-03T03:40:02;2.27;;;1.30;;
5931;SDS011;2991;49.368;8.528;2022-07-03T03:42:29;1.23;;;1.23;;
5931;SDS011;2991;49.368;8.528;2022-07-03T03:44:54;1.10;;;1.00;;
5931;SDS011;2991;49.368;8.528;2022-07-03T03:47:20;1.27;;;1.10;;
5931;SDS011;2991;49.368;8.528;2022-07-03T03:49:45;1.20;;;1.20;;
5931;SDS011;2991;49.368;8.528;2022-07-03T03:52:11;2.13;;;1.40;;
5931;SDS011;2991;49.368;8.528;2022-07-03T03:54:37;1.70;;;1.60;;
5931;SDS011;2991;49.368;8.528;2022-07-03T03:57:21;1.30;;;1.30;;
5931;SDS011;2991;49.368;8.528;2022-07-03T03:59:48;1.27;;;1.27;;
5931;SDS011;2991;49.368;8.528;2022-07-03T04:02:14;1.20;;;1.10;;
5931;SDS011;2991;49.368;8.528;2022-07-03T04:04:41;1.33;;;1.23;;
5931;SDS011;2991;49.368;8.528;2022-07-03T04:07:06;1.30;;;1.30;;
5931;SDS011;2991;49.368;8.528;2022-07-03T04:09:32;1.70;;;1.60;;
5931;SDS011;2991;49.368;8.528;2022-07-03T04:11:58;1.30;;;1.30;;
5931;SDS011;2991;49.368;8.528;2022-07-03T04:14:24;1.50;;;1.40;;
5931;SDS011;2991;49.368;8.528;2022-07-03T04:16:49;1.80;;;1.30;;
5931;SDS011;2991;49.368;8.528;2022-07-03T04:19:15;1.10;;;1.10;;
5931;SDS011;2991;49.368;8.528;2022-07-03T04:21:41;1.20;;;1.20;;
5931;SDS011;2991;49.368;8.528;2022-07-03T04:24:06;1.40;;;1.40;;
5931;SDS011;2991;49.368;8.528;2022-07-03T04:26:35;1.10;;;1.10;;
5931;SDS011;2991;49.368;8.528;2022-07-03T04:29:00;1.47;;;1.47;;
5931;SDS011;2991;49.368;8.528;2022-07-03T04:31:30;2.80;;;1.50;;
5931;SDS011;2991;49.368;8.528;2022-07-03T04:33:56;1.40;;;1.40;;
5931;SDS011;2991;49.368;8.528;2022-07-03T04:36:22;1.60;;;1.30;;
5931;SDS011;2991;49.368;8.528;2022-07-03T04:38:52;1.70;;;1.60;;
5931;SDS011;2991;49.368;8.528;2022-07-03T04:41:18;1.30;;;1.30;;
5931;SDS011;2991;49.368;8.528;2022-07-03T04:43:46;1.77;;;1.67;;
5931;SDS011;2991;49.368;8.528;2022-07-03T04:46:14;1.40;;;1.30;;
5931;SDS011;2991;49.368;8.528;2022-07-03T04:48:40;1.30;;;1.30;;
5931;SDS011;2991;49.368;8.528;2022-07-03T04:51:05;1.80;;;1.70;;
5931;SDS011;2991;49.368;8.528;2022-07-03T04:53:31;1.30;;;1.30;;
5931;SDS011;2991;49.368;8.528;2022-07-03T04:55:58;1.53;;;1.53;;
5931;SDS011;2991;49.368;8.528;2022-07-03T04:58:30;2.50;;;1.60;;
5931;SDS011;2991;49.368;8.528;2022-07-03T05:00:58;1.80;;;1.70;;
5931;SDS011;2991;49.368;8.528;2022-07-03T05:03:24;2.80;;;1.60;;
5931;SDS011;2991;49.368;8.528;2022-07-03T05:05:49;1.70;;;1.60;;
5931;SDS011;2991;49.368;8.528;2022-07-03T05:08:17;1.50;;;1.50;;
5931;SDS011;2991;49.368;8.528;2022-07-03T05:10:44;1.83;;;1.40;;
5931;SDS011;2991;49.368;8.528;2022-07-03T05:13:10;1.57;;;1.47;;
5931;SDS011;2991;49.368;8.528;2022-07-03T05:15:36;1.50;;;1.50;;
5931;SDS011;2991;49.368;8.528;2022-07-03T05:18:02;1.80;;;1.70;;
5931;SDS011;2991;49.368;8.528;2022-07-03T05:20:27;1.50;;;1.40;;
5931;SDS011;2991;49.368;8.528;2022-07-03T05:25:41;1.50;;;1.50;;
5931;SDS011;2991;49.368;8.528;2022-07-03T05:28:06;1.70;;;1.50;;
5931;SDS011;2991;49.368;8.528;2022-07-03T05:41:35;1.73;;;1.40;;
5931;SDS011;2991;49.368;8.528;2022-07-03T05:44:02;1.70;;;1.70;;
5931;SDS011;2991;49.368;8.528;2022-07-03T06:00:03;1.53;;;1.43;;
5931;SDS011;2991;49.368;8.528;2022-07-03T06:13:15;1.60;;;1.50;;
5931;SDS011;2991;49.368;8.528;2022-07-03T06:16:23;1.43;;;1.43;;
5931;SDS011;2991;49.368;8.528;2022-07-03T06:19:46;1.37;;;1.37;;
5931;SDS011;2991;49.368;8.528;2022-07-03T06:22:45;1.40;;;1.40;;
5931;SDS011;2991;49.368;8.528;2022-07-03T06:32:50;1.50;;;1.40;;
5931;SDS011;2991;49.368;8.528;2022-07-03T06:39:51;2.20;;;1.50;;
5931;SDS011;2991;49.368;8.528;2022-07-03T06:42:17;1.37;;;1.27;;
5931;SDS011;2991;49.368;8.528;2022-07-03T06:44:51;1.50;;;1.50;;
5931;SDS011;2991;49.368;8.528;2022-07-03T06:47:17;4.30;;;1.63;;
5931;SDS011;2991;49.368;8.528;2022-07-03T06:49:43;1.70;;;1.47;;
5931;SDS011;2991;49.368;8.528;2022-07-03T06:52:09;1.83;;;1.73;;
5931;SDS011;2991;49.368;8.528;2022-07-03T06:54:35;1.70;;;1.60;;
5931;SDS011;2991;49.368;8.528;2022-07-03T06:57:08;2.00;;;1.43;;
5931;SDS011;2991;49.368;8.528;2022-07-03T06:59:38;1.40;;;1.40;;
5931;SDS011;2991;49.368;8.528;2022-07-03T07:02:03;1.47;;;1.37;;
5931;SDS011;2991;49.368;8.528;2022-07-03T07:04:29;1.30;;;1.30;;
5931;SDS011;2991;49.368;8.528;2022-07-03T07:06:55;1.13;;;1.13;;
5931;SDS011;2991;49.368;8.528;2022-07-03T07:09:25;1.30;;;1.30;;
5931;SDS011;2991;49.368;8.528;2022-07-03T07:11:51;1.23;;;1.23;;
5931;SDS011;2991;49.368;8.528;2022-07-03T07:14:17;1.33;;;1.10;;
5931;SDS011;2991;49.368;8.528;2022-07-03T07:16:43;1.67;;;1.27;;
5931;SDS011;2991;49.368;8.528;2022-07-03T07:19:08;1.30;;;1.30;;
5931;SDS011;2991;49.368;8.528;2022-07-03T07:21:37;1.40;;;1.30;;
5931;SDS011;2991;49.368;8.528;2022-07-03T07:24:08;1.20;;;1.20;;
5931;SDS011;2991;49.368;8.528;2022-07-03T07:26:33;1.10;;;1.10;;
5931;SDS011;2991;49.368;8.528;2022-07-03T07:29:16;1.43;;;1.43;;
5931;SDS011;2991;49.368;8.528;2022-07-03T07:31:56;1.47;;;1.40;;
5931;SDS011;2991;49.368;8.528;2022-07-03T07:34:24;1.40;;;1.30;;
5931;SDS011;2991;49.368;8.528;2022-07-03T07:36:54;1.40;;;1.30;;
5931;SDS011;2991;49.368;8.528;2022-07-03T07:39:23;1.50;;;1.40;;
5931;SDS011;2991;49.368;8.528;2022-07-03T07:41:55;1.30;;;1.30;;
5931;SDS011;2991;49.368;8.528;2022-07-03T07:44:38;1.27;;;1.27;;
5931;SDS011;2991;49.368;8.528;2022-07-03T07:47:03;1.60;;;1.50;;
5931;SDS011;2991;49.368;8.528;2022-07-03T07:49:29;1.50;;;1.50;;
5931;SDS011;2991;49.368;8.528;2022-07-03T07:52:01;1.40;;;1.30;;
5931;SDS011;2991;49.368;8.528;2022-07-03T07:54:26;1.30;;;1.30;;
5931;SDS011;2991;49.368;8.528;2022-07-03T07:57:02;1.40;;;1.30;;
5931;SDS011;2991;49.368;8.528;2022-07-03T07:59:28;2.77;;;1.27;;
5931;SDS011;2991;49.368;8.528;2022-07-03T08:01:53;1.27;;;1.27;;
5931;SDS011;2991;49.368;8.528;2022-07-03T08:04:37;1.50;;;1.40;;
5931;SDS011;2991;49.368;8.528;2022-07-03T08:07:21;3.90;;;1.50;;
5931;SDS011;2991;49.368;8.528;2022-07-03T08:09:47;1.37;;;1.27;;
5931;SDS011;2991;49.368;8.528;2022-07-03T08:12:38;1.30;;;1.30;;
5931;SDS011;2991;49.368;8.528;2022-07-03T08:15:29;1.90;;;1.17;;
5931;SDS011;2991;49.368;8.528;2022-07-03T08:17:55;1.85;;;1.27;;
5931;SDS011;2991;49.368;8.528;2022-07-03T08:23:59;1.30;;;1.30;;
5931;SDS011;2991;49.368;8.528;2022-07-03T08:26:41;1.38;;;1.38;;
5931;SDS011;2991;49.368;8.528;2022-07-03T08:29:09;1.67;;;1.50;;
5931;SDS011;2991;49.368;8.528;2022-07-03T08:31:35;0.90;;;0.90;;
5931;SDS011;2991;49.368;8.528;2022-07-03T08:34:03;1.02;;;1.02;;
5931;SDS011;2991;49.368;8.528;2022-07-03T08:36:29;1.00;;;1.00;;
5931;SDS011;2991;49.368;8.528;2022-07-03T08:39:52;1.20;;;1.20;;
5931;SDS011;2991;49.368;8.528;2022-07-03T08:42:34;1.13;;;1.13;;
5931;SDS011;2991;49.368;8.528;2022-07-03T08:45:34;1.30;;;1.27;;
5931;SDS011;2991;49.368;8.528;2022-07-03T08:48:14;1.40;;;1.30;;
5931;SDS011;2991;49.368;8.528;2022-07-03T08:50:58;1.35;;;1.35;;
5931;SDS011;2991;49.368;8.528;2022-07-03T08:53:24;0.90;;;0.90;;
5931;SDS011;2991;49.368;8.528;2022-07-03T08:55:50;1.02;;;1.02;;
5931;SDS011;2991;49.368;8.528;2022-07-03T08:58:17;1.20;;;1.20;;
5931;SDS011;2991;49.368;8.528;2022-07-03T09:00:45;1.23;;;1.23;;
5931;SDS011;2991;49.368;8.528;2022-07-03T09:03:11;1.50;;;1.40;;
5931;SDS011;2991;49.368;8.528;2022-07-03T09:05:38;1.42;;;1.40;;
5931;SDS011;2991;49.368;8.528;2022-07-03T09:08:08;1.10;;;1.10;;
5931;SDS011;2991;49.368;8.528;2022-07-03T09:10:34;2.67;;;1.30;;
5931;SDS011;2991;49.368;8.528;2022-07-03T09:13:00;0.93;;;0.93;;
5931;SDS011;2991;49.368;8.528;2022-07-03T09:15:25;1.00;;;1.00;;
5931;SDS011;2991;49.368;8.528;2022-07-03T09:20:31;1.33;;;1.33;;
5931;SDS011;2991;49.368;8.528;2022-07-03T09:23:10;1.13;;;1.13;;
5931;SDS011;2991;49.368;8.528;2022-07-03T09:25:55;1.30;;;1.30;;
5931;SDS011;2991;49.368;8.528;2022-07-03T09:28:40;1.20;;;1.20;;
5931;SDS011;2991;49.368;8.528;2022-07-03T09:31:13;1.40;;;1.40;;
5931;SDS011;2991;49.368;8.528;2022-07-03T09:33:47;1.37;;;1.27;;
5931;SDS011;2991;49.368;8.528;2022-07-03T09:39:28;3.60;;;1.10;;
5931;SDS011;2991;49.368;8.528;2022-07-03T09:42:05;1.10;;;1.10;;
5931;SDS011;2991;49.368;8.528;2022-07-03T09:47:08;7.05;;;1.50;;
5931;SDS011;2991;49.368;8.528;2022-07-03T09:49:44;3.90;;;1.40;;
5931;SDS011;2991;49.368;8.528;2022-07-03T09:52:33;6.18;;;1.50;;
5931;SDS011;2991;49.368;8.528;2022-07-03T09:57:39;5.37;;;1.40;;
5931;SDS011;2991;49.368;8.528;2022-07-03T10:00:19;3.72;;;1.52;;
5931;SDS011;2991;49.368;8.528;2022-07-03T10:05:31;2.78;;;1.30;;
5931;SDS011;2991;49.368;8.528;2022-07-03T10:07:59;1.20;;;1.10;;
5931;SDS011;2991;49.368;8.528;2022-07-03T10:10:28;1.98;;;1.20;;
5931;SDS011;2991;49.368;8.528;2022-07-03T10:12:55;1.33;;;1.20;;
5931;SDS011;2991;49.368;8.528;2022-07-03T10:15:21;1.52;;;1.02;;
5931;SDS011;2991;49.368;8.528;2022-07-03T10:17:49;1.40;;;1.10;;
5931;SDS011;2991;49.368;8.528;2022-07-03T10:20:27;1.63;;;1.45;;
5931;SDS011;2991;49.368;8.528;2022-07-03T10:22:54;1.08;;;1.05;;
5931;SDS011;2991;49.368;8.528;2022-07-03T10:25:20;1.00;;;1.00;;
5931;SDS011;2991;49.368;8.528;2022-07-03T10:27:46;1.25;;;1.20;;
5931;SDS011;2991;49.368;8.528;2022-07-03T10:30:16;3.92;;;1.25;;
5931;SDS011;2991;49.368;8.528;2022-07-03T10:32:44;1.10;;;1.10;;
5931;SDS011;2991;49.368;8.528;2022-07-03T10:35:28;1.00;;;1.00;;
5931;SDS011;2991;49.368;8.528;2022-07-03T10:38:03;1.23;;;1.23;;
5931;SDS011;2991;49.368;8.528;2022-07-03T10:44:02;1.20;;;1.10;;
5931;SDS011;2991;49.368;8.528;2022-07-03T10:46:46;1.10;;;1.10;;
5931;SDS011;2991;49.368;8.528;2022-07-03T10:49:12;1.63;;;1.52;;
5931;SDS011;2991;49.368;8.528;2022-07-03T11:20:30;0.95;;;0.88;;
5931;SDS011;2991;49.368;8.528;2022-07-03T11:23:06;1.00;;;1.00;;
5931;SDS011;2991;49.368;8.528;2022-07-03T11:25:43;0.90;;;0.90;;
5931;SDS011;2991;49.368;8.528;2022-07-03T11:33:56;1.13;;;1.02;;
5931;SDS011;2991;49.368;8.528;2022-07-03T11:38:48;2.97;;;1.00;;
5931;SDS011;2991;49.368;8.528;2022-07-03T11:44:01;0.90;;;0.90;;
5931;SDS011;2991;49.368;8.528;2022-07-03T11:46:29;0.98;;;0.98;;
5931;SDS011;2991;49.368;8.528;2022-07-03T11:49:06;1.35;;;1.17;;
5931;SDS011;2991;49.368;8.528;2022-07-03T11:51:32;0.85;;;0.75;;
5931;SDS011;2991;49.368;8.528;2022-07-03T11:53:58;0.80;;;0.80;;
5931;SDS011;2991;49.368;8.528;2022-07-03T11:56:23;0.70;;;0.70;;
5931;SDS011;2991;49.368;8.528;2022-07-03T11:58:53;0.80;;;0.80;;
5931;SDS011;2991;49.368;8.528;2022-07-03T12:04:07;0.90;;;0.90;;
5931;SDS011;2991;49.368;8.528;2022-07-03T12:06:36;1.00;;;1.00;;
5931;SDS011;2991;49.368;8.528;2022-07-03T12:09:18;2.75;;;0.82;;
5931;SDS011;2991;49.368;8.528;2022-07-03T12:11:52;0.80;;;0.80;;
5931;SDS011;2991;49.368;8.528;2022-07-03T12:14:38;0.90;;;0.90;;
5931;SDS011;2991;49.368;8.528;2022-07-03T12:17:04;1.00;;;1.00;;
5931;SDS011;2991;49.368;8.528;2022-07-03T12:19:30;0.85;;;0.85;;
5931;SDS011;2991;49.368;8.528;2022-07-03T12:21:56;1.73;;;1.02;;
5931;SDS011;2991;49.368;8.528;2022-07-03T12:24:22;1.40;;;1.15;;
5931;SDS011;2991;49.368;8.528;2022-07-03T12:26:48;1.13;;;0.80;;
5931;SDS011;2991;49.368;8.528;2022-07-03T12:29:14;0.80;;;0.80;;
5931;SDS011;2991;49.368;8.528;2022-07-03T12:31:41;0.75;;;0.75;;
5931;SDS011;2991;49.368;8.528;2022-07-03T12:34:09;0.80;;;0.80;;
5931;SDS011;2991;49.368;8.528;2022-07-03T12:36:36;0.90;;;0.90;;
5931;SDS011;2991;49.368;8.528;2022-07-03T12:39:02;1.05;;;1.05;;
5931;SDS011;2991;49.368;8.528;2022-07-03T12:41:28;0.85;;;0.85;;
5931;SDS011;2991;49.368;8.528;2022-07-03T12:43:54;0.90;;;0.90;;
5931;SDS011;2991;49.368;8.528;2022-07-03T12:46:24;1.40;;;1.20;;
5931;SDS011;2991;49.368;8.528;2022-07-03T12:48:55;1.15;;;1.05;;
5931;SDS011;2991;49.368;8.528;2022-07-03T12:54:06;1.67;;;1.08;;
5931;SDS011;2991;49.368;8.528;2022-07-03T12:56:32;6.63;;;1.15;;
5931;SDS011;2991;49.368;8.528;2022-07-03T12:58:58;4.65;;;0.95;;
5931;SDS011;2991;49.368;8.528;2022-07-03T13:01:42;1.00;;;1.00;;
5931;SDS011;2991;49.368;8.528;2022-07-03T13:04:29;1.65;;;0.75;;
5931;SDS011;2991;49.368;8.528;2022-07-03T13:06:59;1.63;;;0.90;;
5931;SDS011;2991;49.368;8.528;2022-07-03T13:09:30;0.77;;;0.73;;
5931;SDS011;2991;49.368;8.528;2022-07-03T13:11:56;0.80;;;0.80;;
5931;SDS011;2991;49.368;8.528;2022-07-03T13:14:21;1.55;;;0.73;;
5931;SDS011;2991;49.368;8.528;2022-07-03T13:16:51;4.07;;;1.15;;
5931;SDS011;2991;49.368;8.528;2022-07-03T13:19:18;0.73;;;0.73;;
5931;SDS011;2991;49.368;8.528;2022-07-03T13:21:46;1.17;;;0.82;;
5931;SDS011;2991;49.368;8.528;2022-07-03T13:24:13;1.05;;;0.60;;
5931;SDS011;2991;49.368;8.528;2022-07-03T13:26:40;0.85;;;0.80;;
5931;SDS011;2991;49.368;8.528;2022-07-03T13:29:07;3.83;;;1.08;;
5931;SDS011;2991;49.368;8.528;2022-07-03T13:31:33;1.38;;;0.90;;
5931;SDS011;2991;49.368;8.528;2022-07-03T13:33:58;1.05;;;0.82;;
5931;SDS011;2991;49.368;8.528;2022-07-03T13:36:25;2.08;;;0.90;;
5931;SDS011;2991;49.368;8.528;2022-07-03T13:38:51;3.33;;;1.00;;
5931;SDS011;2991;49.368;8.528;2022-07-03T13:41:17;0.80;;;0.80;;
5931;SDS011;2991;49.368;8.528;2022-07-03T13:43:44;1.35;;;1.00;;
5931;SDS011;2991;49.368;8.528;2022-07-03T13:46:10;1.40;;;0.70;;
5931;SDS011;2991;49.368;8.528;2022-07-03T13:48:36;7.00;;;1.45;;
5931;SDS011;2991;49.368;8.528;2022-07-03T13:51:02;2.25;;;0.90;;
5931;SDS011;2991;49.368;8.528;2022-07-03T13:53:27;1.00;;;1.00;;
5931;SDS011;2991;49.368;8.528;2022-07-03T13:55:54;1.08;;;0.70;;
5931;SDS011;2991;49.368;8.528;2022-07-03T13:58:21;2.47;;;1.27;;
5931;SDS011;2991;49.368;8.528;2022-07-03T14:00:48;1.10;;;0.82;;
5931;SDS011;2991;49.368;8.528;2022-07-03T14:03:13;2.47;;;1.08;;
5931;SDS011;2991;49.368;8.528;2022-07-03T14:05:39;1.25;;;1.00;;
5931;SDS011;2991;49.368;8.528;2022-07-03T14:08:04;1.00;;;1.00;;
5931;SDS011;2991;49.368;8.528;2022-07-03T14:10:30;0.82;;;0.82;;
5931;SDS011;2991;49.368;8.528;2022-07-03T14:12:55;4.28;;;0.93;;
5931;SDS011;2991;49.368;8.528;2022-07-03T14:15:21;2.58;;;1.10;;
5931;SDS011;2991;49.368;8.528;2022-07-03T14:17:46;2.05;;;1.15;;
5931;SDS011;2991;49.368;8.528;2022-07-03T14:20:13;3.30;;;1.00;;
5931;SDS011;2991;49.368;8.528;2022-07-03T14:22:39;1.80;;;0.80;;
5931;SDS011;2991;49.368;8.528;2022-07-03T14:25:04;1.55;;;1.00;;
5931;SDS011;2991;49.368;8.528;2022-07-03T14:27:30;1.02;;;0.82;;
5931;SDS011;2991;49.368;8.528;2022-07-03T14:30:14;0.70;;;0.70;;
5931;SDS011;2991;49.368;8.528;2022-07-03T14:32:58;2.42;;;0.95;;
5931;SDS011;2991;49.368;8.528;2022-07-03T14:35:24;0.90;;;0.90;;
5931;SDS011;2991;49.368;8.528;2022-07-03T14:37:51;2.58;;;0.73;;
5931;SDS011;2991;49.368;8.528;2022-07-03T14:40:16;2.25;;;1.00;;
5931;SDS011;2991;49.368;8.528;2022-07-03T14:42:42;3.80;;;0.93;;
5931;SDS011;2991;49.368;8.528;2022-07-03T14:45:08;2.05;;;0.93;;
5931;SDS011;2991;49.368;8.528;2022-07-03T14:47:33;0.75;;;0.60;;
5931;SDS011;2991;49.368;8.528;2022-07-03T14:49:59;2.42;;;1.13;;
5931;SDS011;2991;49.368;8.528;2022-07-03T14:52:38;1.30;;;1.05;;
5931;SDS011;2991;49.368;8.528;2022-07-03T14:55:04;4.05;;;1.00;;
5931;SDS011;2991;49.368;8.528;2022-07-03T15:00:14;1.65;;;1.10;;
5931;SDS011;2991;49.368;8.528;2022-07-03T15:03:03;2.15;;;0.70;;
5931;SDS011;2991;49.368;8.528;2022-07-03T15:05:31;3.10;;;0.85;;
5931;SDS011;2991;49.368;8.528;2022-07-03T15:10:23;1.85;;;0.80;;
5931;SDS011;2991;49.368;8.528;2022-07-03T15:12:50;1.67;;;1.23;;
5931;SDS011;2991;49.368;8.528;2022-07-03T15:15:18;1.77;;;0.90;;
5931;SDS011;2991;49.368;8.528;2022-07-03T15:17:49;1.33;;;0.93;;
5931;SDS011;2991;49.368;8.528;2022-07-03T15:20:17;1.15;;;0.80;;
5931;SDS011;2991;49.368;8.528;2022-07-03T15:22:44;2.65;;;0.77;;
5931;SDS011;2991;49.368;8.528;2022-07-03T15:25:11;0.75;;;0.75;;
5931;SDS011;2991;49.368;8.528;2022-07-03T15:27:38;1.42;;;0.90;;
5931;SDS011;2991;49.368;8.528;2022-07-03T15:30:06;2.90;;;0.80;;
5931;SDS011;2991;49.368;8.528;2022-07-03T15:32:33;1.95;;;0.90;;
5931;SDS011;2991;49.368;8.528;2022-07-03T15:34:59;7.72;;;1.10;;
5931;SDS011;2991;49.368;8.528;2022-07-03T15:37:35;1.15;;;0.90;;
5931;SDS011;2991;49.368;8.528;2022-07-03T15:40:09;2.38;;;1.00;;
5931;SDS011;2991;49.368;8.528;2022-07-03T15:48:18;4.32;;;1.15;;
5931;SDS011;2991;49.368;8.528;2022-07-03T15:50:55;1.00;;;1.00;;
5931;SDS011;2991;49.368;8.528;2022-07-03T15:53:31;1.40;;;1.13;;
5931;SDS011;2991;49.368;8.528;2022-07-03T15:56:02;5.00;;;1.08;;
5931;SDS011;2991;49.368;8.528;2022-07-03T15:58:30;1.20;;;1.10;;
5931;SDS011;2991;49.368;8.528;2022-07-03T16:00:57;3.55;;;1.40;;
5931;SDS011;2991;49.368;8.528;2022-07-03T16:03:53;2.25;;;1.13;;
5931;SDS011;2991;49.368;8.528;2022-07-03T16:06:26;1.10;;;1.10;;
5931;SDS011;2991;49.368;8.528;2022-07-03T16:08:54;2.70;;;1.20;;
5931;SDS011;2991;49.368;8.528;2022-07-03T16:11:20;2.28;;;1.38;;
5931;SDS011;2991;49.368;8.528;2022-07-03T16:13:46;2.90;;;1.40;;
5931;SDS011;2991;49.368;8.528;2022-07-03T16:16:15;1.58;;;1.48;;
5931;SDS011;2991;49.368;8.528;2022-07-03T16:18:42;2.70;;;1.38;;
5931;SDS011;2991;49.368;8.528;2022-07-03T16:21:09;1.13;;;1.10;;
5931;SDS011;2991;49.368;8.528;2022-07-03T16:23:35;1.17;;;1.08;;
5931;SDS011;2991;49.368;8.528;2022-07-03T16:26:03;2.72;;;1.23;;
5931;SDS011;2991;49.368;8.528;2022-07-03T16:28:31;1.40;;;1.30;;
5931;SDS011;2991;49.368;8.528;2022-07-03T16:30:57;1.00;;;1.00;;
5931;SDS011;2991;49.368;8.528;2022-07-03T16:33:26;1.55;;;1.45;;
5931;SDS011;2991;49.368;8.528;2022-07-03T16:36:02;0.93;;;0.93;;
5931;SDS011;2991;49.368;8.528;2022-07-03T16:38:51;1.88;;;1.35;;
5931;SDS011;2991;49.368;8.528;2022-07-03T16:41:24;1.25;;;1.25;;
5931;SDS011;2991;49.368;8.528;2022-07-03T16:43:55;1.30;;;1.30;;
5931;SDS011;2991;49.368;8.528;2022-07-03T16:46:23;1.13;;;1.00;;
5931;SDS011;2991;49.368;8.528;2022-07-03T16:48:51;1.65;;;1.35;;
5931;SDS011;2991;49.368;8.528;2022-07-03T16:51:19;1.35;;;1.05;;
5931;SDS011;2991;49.368;8.528;2022-07-03T16:53:49;1.27;;;1.17;;
5931;SDS011;2991;49.368;8.528;2022-07-03T16:56:15;1.20;;;1.10;;
5931;SDS011;2991;49.368;8.528;2022-07-03T16:58:42;2.00;;;1.00;;
5931;SDS011;2991;49.368;8.528;2022-07-03T17:01:09;1.08;;;0.98;;
5931;SDS011;2991;49.368;8.528;2022-07-03T17:03:35;2.55;;;1.25;;
5931;SDS011;2991;49.368;8.528;2022-07-03T17:06:01;1.67;;;1.30;;
5931;SDS011;2991;49.368;8.528;2022-07-03T17:08:29;0.90;;;0.90;;
5931;SDS011;2991;49.368;8.528;2022-07-03T17:10:56;0.93;;;0.90;;
5931;SDS011;2991;49.368;8.528;2022-07-03T17:13:22;6.60;;;1.20;;
5931;SDS011;2991;49.368;8.528;2022-07-03T17:15:48;1.10;;;1.10;;
5931;SDS011;2991;49.368;8.528;2022-07-03T17:18:16;2.15;;;0.90;;
5931;SDS011;2991;49.368;8.528;2022-07-03T17:20:44;1.30;;;1.20;;
5931;SDS011;2991;49.368;8.528;2022-07-03T17:25:44;1.73;;;1.63;;
5931;SDS011;2991;49.368;8.528;2022-07-03T17:28:11;1.02;;;1.02;;
5931;SDS011;2991;49.368;8.528;2022-07-03T17:33:05;1.10;;;1.05;;
5931;SDS011;2991;49.368;8.528;2022-07-03T17:35:42;1.05;;;1.05;;
5931;SDS011;2991;49.368;8.528;2022-07-03T17:42:34;1.20;;;1.20;;
5931;SDS011;2991;49.368;8.528;2022-07-03T18:01:34;1.10;;;1.10;;
5931;SDS011;2991;49.368;8.528;2022-07-03T18:10:47;5.88;;;1.15;;
5931;SDS011;2991;49.368;8.528;2022-07-03T18:16:39;1.02;;;1.02;;
5931;SDS011;2991;49.368;8.528;2022-07-03T18:19:14;2.55;;;2.00;;
5931;SDS011;2991;49.368;8.528;2022-07-03T18:21:59;1.30;;;1.20;;
5931;SDS011;2991;49.368;8.528;2022-07-03T18:31:54;2.05;;;1.42;;
5931;SDS011;2991;49.368;8.528;2022-07-03T18:34:34;1.20;;;1.13;;
5931;SDS011;2991;49.368;8.528;2022-07-03T18:37:08;1.42;;;1.42;;
5931;SDS011;2991;49.368;8.528;2022-07-03T19:50:46;1.55;;;1.00;;
5931;SDS011;2991;49.368;8.528;2022-07-03T19:53:11;2.28;;;1.20;;
5931;SDS011;2991;49.368;8.528;2022-07-03T19:55:43;1.35;;;1.30;;
5931;SDS011;2991;49.368;8.528;2022-07-03T19:58:32;2.15;;;1.20;;
5931;SDS011;2991;49.368;8.528;2022-07-03T20:01:20;2.05;;;1.30;;
5931;SDS011;2991;49.368;8.528;2022-07-03T20:03:57;1.30;;;1.20;;
5931;SDS011;2991;49.368;8.528;2022-07-03T20:06:35;1.58;;;1.48;;
5931;SDS011;2991;49.368;8.528;2022-07-03T20:09:03;4.60;;;1.98;;
5931;SDS011;2991;49.368;8.528;2022-07-03T20:11:31;2.08;;;1.98;;
5931;SDS011;2991;49.368;8.528;2022-07-03T20:14:13;1.33;;;1.33;;
5931;SDS011;2991;49.368;8.528;2022-07-03T20:16:57;1.42;;;1.42;;
5931;SDS011;2991;49.368;8.528;2022-07-03T20:19:25;1.55;;;1.50;;
5931;SDS011;2991;49.368;8.528;2022-07-03T20:25:00;1.85;;;1.73;;
5931;SDS011;2991;49.368;8.528;2022-07-03T20:27:46;1.73;;;1.20;;
5931;SDS011;2991;49.368;8.528;2022-07-03T20:30:22;1.60;;;1.50;;
5931;SDS011;2991;49.368;8.528;2022-07-03T20:32:47;1.30;;;1.30;;
5931;SDS011;2991;49.368;8.528;2022-07-03T20:35:32;1.75;;;1.55;;
5931;SDS011;2991;49.368;8.528;2022-07-03T20:38:04;1.48;;;1.38;;
5931;SDS011;2991;49.368;8.528;2022-07-03T20:40:34;1.85;;;1.75;;
5931;SDS011;2991;49.368;8.528;2022-07-03T20:43:28;1.38;;;1.35;;
5931;SDS011;2991;49.368;8.528;2022-07-03T20:46:10;1.77;;;1.40;;
5931;SDS011;2991;49.368;8.528;2022-07-03T20:48:39;1.73;;;1.63;;
5931;SDS011;2991;49.368;8.528;2022-07-03T20:51:16;1.25;;;1.25;;
5931;SDS011;2991;49.368;8.528;2022-07-03T20:53:49;1.55;;;1.45;;
5931;SDS011;2991;49.368;8.528;2022-07-03T20:56:18;6.40;;;1.48;;
5931;SDS011;2991;49.368;8.528;2022-07-03T20:59:05;1.77;;;1.67;;
5931;SDS011;2991;49.368;8.528;2022-07-03T21:01:34;1.48;;;1.48;;
5931;SDS011;2991;49.368;8.528;2022-07-03T21:04:24;1.77;;;1.65;;
5931;SDS011;2991;49.368;8.528;2022-07-03T21:06:55;2.17;;;1.42;;
5931;SDS011;2991;49.368;8.528;2022-07-03T21:09:30;1.42;;;1.33;;
5931;SDS011;2991;49.368;8.528;2022-07-03T21:12:02;1.45;;;1.35;;
5931;SDS011;2991;49.368;8.528;2022-07-03T21:14:34;1.80;;;1.70;;
5931;SDS011;2991;49.368;8.528;2022-07-03T21:17:07;1.60;;;1.50;;
5931;SDS011;2991;49.368;8.528;2022-07-03T21:19:39;2.30;;;1.13;;
5931;SDS011;2991;49.368;8.528;2022-07-03T21:22:15;1.10;;;1.08;;
5931;SDS011;2991;49.368;8.528;2022-07-03T21:25:08;1.38;;;1.38;;
5931;SDS011;2991;49.368;8.528;2022-07-03T21:27:42;1.40;;;1.30;;
5931;SDS011;2991;49.368;8.528;2022-07-03T21:30:15;2.25;;;1.45;;
5931;SDS011;2991;49.368;8.528;2022-07-03T21:32:43;4.15;;;1.25;;